sensor_id;sensor_type;location;lat;lon;timestamp;temperature;humidity
58339;DHT22;48278;52.704;6.536;2023-01-29T00:02:20;3.30;99.90
58339;DHT22;48278;52.704;6.536;2023-01-29T00:04:46;3.20;99.90
58339;DHT22;48278;52.704;6.536;2023-01-29T00:07:11;3.20;99.90
58339;DHT22;48278;52.704;6.536;2023-01-29T00:09:37;3.30;99.90
58339;DHT22;48278;52.704;6.536;2023-01-29T00:12:03;3.20;99.90
58339;DHT22;48278;52.704;6.536;2023-01-29T00:14:29;3.20;99.90
58339;DHT22;48278;52.704;6.536;2023-01-29T00:16:54;3.20;99.90
58339;DHT22;48278;52.704;6.536;2023-01-29T00:19:20;3.20;99.90
58339;DHT22;48278;52.704;6.536;2023-01-29T00:21:46;3.10;99.90
58339;DHT22;48278;52.704;6.536;2023-01-29T00:24:12;3.10;99.90
58339;DHT22;48278;52.704;6.536;2023-01-29T00:26:38;3.10;99.90
58339;DHT22;48278;52.704;6.536;2023-01-29T00:29:05;3.10;99.90
58339;DHT22;48278;52.704;6.536;2023-01-29T00:31:30;3.10;99.90
58339;DHT22;48278;52.704;6.536;2023-01-29T00:33:57;3.10;99.90
58339;DHT22;48278;52.704;6.536;2023-01-29T00:36:24;3.10;99.90
58339;DHT22;48278;52.704;6.536;2023-01-29T00:38:58;3.10;99.90
58339;DHT22;48278;52.704;6.536;2023-01-29T00:41:30;3.20;99.90
58339;DHT22;48278;52.704;6.536;2023-01-29T00:44:15;3.10;99.90
58339;DHT22;48278;52.704;6.536;2023-01-29T00:47:00;3.10;99.90
58339;DHT22;48278;52.704;6.536;2023-01-29T00:49:26;3.20;99.90
58339;DHT22;48278;52.704;6.536;2023-01-29T00:51:52;3.10;99.90
58339;DHT22;48278;52.704;6.536;2023-01-29T00:54:36;3.20;99.90
58339;DHT22;48278;52.704;6.536;2023-01-29T00:57:03;3.20;99.90
58339;DHT22;48278;52.704;6.536;2023-01-29T00:59:29;3.30;99.90
58339;DHT22;48278;52.704;6.536;2023-01-29T01:01:55;3.20;99.90
58339;DHT22;48278;52.704;6.536;2023-01-29T01:04:39;3.20;99.90
58339;DHT22;48278;52.704;6.536;2023-01-29T01:07:05;3.30;99.90
58339;DHT22;48278;52.704;6.536;2023-01-29T01:09:34;3.30;99.90
58339;DHT22;48278;52.704;6.536;2023-01-29T01:12:18;3.30;99.90
58339;DHT22;48278;52.704;6.536;2023-01-29T01:14:44;3.30;99.90
58339;DHT22;48278;52.704;6.536;2023-01-29T01:17:10;3.30;99.90
58339;DHT22;48278;52.704;6.536;2023-01-29T01:19:36;3.30;99.90
58339;DHT22;48278;52.704;6.536;2023-01-29T01:22:01;3.30;99.90
58339;DHT22;48278;52.704;6.536;2023-01-29T01:24:29;3.30;99.90
58339;DHT22;48278;52.704;6.536;2023-01-29T01:26:55;3.30;99.90
58339;DHT22;48278;52.704;6.536;2023-01-29T01:29:21;3.30;99.90
58339;DHT22;48278;52.704;6.536;2023-01-29T01:31:46;3.30;99.90
58339;DHT22;48278;52.704;6.536;2023-01-29T01:34:12;3.30;99.90
58339;DHT22;48278;52.704;6.536;2023-01-29T01:36:38;3.30;99.90
58339;DHT22;48278;52.704;6.536;2023-01-29T01:39:03;3.30;99.90
58339;DHT22;48278;52.704;6.536;2023-01-29T01:41:29;3.30;99.90
58339;DHT22;48278;52.704;6.536;2023-01-29T01:43:57;3.30;99.90
58339;DHT22;48278;52.704;6.536;2023-01-29T01:46:35;3.40;99.90
58339;DHT22;48278;52.704;6.536;2023-01-29T01:49:09;3.40;99.90
58339;DHT22;48278;52.704;6.536;2023-01-29T01:51:42;3.30;99.90
58339;DHT22;48278;52.704;6.536;2023-01-29T01:54:12;3.30;99.90
58339;DHT22;48278;52.704;6.536;2023-01-29T01:56:42;3.40;99.90
58339;DHT22;48278;52.704;6.536;2023-01-29T01:59:14;3.40;99.90
58339;DHT22;48278;52.704;6.536;2023-01-29T02:01:43;3.40;99.90
58339;DHT22;48278;52.704;6.536;2023-01-29T02:04:17;3.40;99.90
58339;DHT22;48278;52.704;6.536;2023-01-29T02:07:03;3.40;99.90
58339;DHT22;48278;52.704;6.536;2023-01-29T02:10:09;3.40;99.90
58339;DHT22;48278;52.704;6.536;2023-01-29T02:12:36;3.40;99.90
58339;DHT22;48278;52.704;6.536;2023-01-29T02:15:03;3.40;99.90
58339;DHT22;48278;52.704;6.536;2023-01-29T02:17:29;3.40;99.90
58339;DHT22;48278;52.704;6.536;2023-01-29T02:20:17;3.30;99.90
58339;DHT22;48278;52.704;6.536;2023-01-29T02:23:13;3.30;99.90
58339;DHT22;48278;52.704;6.536;2023-01-29T02:29:01;3.40;99.90
58339;DHT22;48278;52.704;6.536;2023-01-29T02:35:14;3.40;99.90
58339;DHT22;48278;52.704;6.536;2023-01-29T02:38:25;3.40;99.90
58339;DHT22;48278;52.704;6.536;2023-01-29T02:41:09;3.40;99.90
58339;DHT22;48278;52.704;6.536;2023-01-29T02:54:31;3.40;99.90
58339;DHT22;48278;52.704;6.536;2023-01-29T02:57:09;3.40;99.90
58339;DHT22;48278;52.704;6.536;2023-01-29T02:59:47;3.40;99.90
58339;DHT22;48278;52.704;6.536;2023-01-29T03:02:17;3.40;99.90
58339;DHT22;48278;52.704;6.536;2023-01-29T03:04:55;3.40;99.90
58339;DHT22;48278;52.704;6.536;2023-01-29T03:07:29;3.50;99.90
58339;DHT22;48278;52.704;6.536;2023-01-29T03:10:19;3.40;99.90
58339;DHT22;48278;52.704;6.536;2023-01-29T03:12:51;3.40;99.90
58339;DHT22;48278;52.704;6.536;2023-01-29T03:15:27;3.40;99.90
58339;DHT22;48278;52.704;6.536;2023-01-29T03:18:01;3.40;99.90
58339;DHT22;48278;52.704;6.536;2023-01-29T03:20:32;3.40;99.90
58339;DHT22;48278;52.704;6.536;2023-01-29T03:23:13;3.40;99.90
58339;DHT22;48278;52.704;6.536;2023-01-29T03:25:41;3.40;99.90
58339;DHT22;48278;52.704;6.536;2023-01-29T03:28:27;3.40;99.90
58339;DHT22;48278;52.704;6.536;2023-01-29T03:31:14;3.40;99.90
58339;DHT22;48278;52.704;6.536;2023-01-29T03:34:12;3.30;99.90
58339;DHT22;48278;52.704;6.536;2023-01-29T03:36:42;3.40;99.90
58339;DHT22;48278;52.704;6.536;2023-01-29T03:39:12;3.30;99.90
58339;DHT22;48278;52.704;6.536;2023-01-29T03:42:01;3.40;99.90
58339;DHT22;48278;52.704;6.536;2023-01-29T03:52:49;3.40;99.90
58339;DHT22;48278;52.704;6.536;2023-01-29T04:01:24;3.40;99.90
58339;DHT22;48278;52.704;6.536;2023-01-29T04:06:34;3.40;99.90
58339;DHT22;48278;52.704;6.536;2023-01-29T04:09:14;3.40;99.90
58339;DHT22;48278;52.704;6.536;2023-01-29T04:11:44;3.40;99.90
58339;DHT22;48278;52.704;6.536;2023-01-29T04:14:13;3.50;99.90
58339;DHT22;48278;52.704;6.536;2023-01-29T04:16:43;3.50;99.90
58339;DHT22;48278;52.704;6.536;2023-01-29T04:19:10;3.50;99.90
58339;DHT22;48278;52.704;6.536;2023-01-29T04:21:36;3.50;99.90
58339;DHT22;48278;52.704;6.536;2023-01-29T04:24:04;3.50;99.90
58339;DHT22;48278;52.704;6.536;2023-01-29T04:29:24;3.60;99.90
58339;DHT22;48278;52.704;6.536;2023-01-29T04:32:33;3.60;99.90
58339;DHT22;48278;52.704;6.536;2023-01-29T04:35:26;3.60;99.90
58339;DHT22;48278;52.704;6.536;2023-01-29T04:40:58;3.60;99.90
58339;DHT22;48278;52.704;6.536;2023-01-29T04:46:18;3.60;99.90
58339;DHT22;48278;52.704;6.536;2023-01-29T04:57:04;3.70;99.90
58339;DHT22;48278;52.704;6.536;2023-01-29T04:59:38;3.70;99.90
58339;DHT22;48278;52.704;6.536;2023-01-29T05:02:06;3.60;99.90
58339;DHT22;48278;52.704;6.536;2023-01-29T05:04:33;3.70;99.90
58339;DHT22;48278;52.704;6.536;2023-01-29T05:07:06;3.70;99.90
58339;DHT22;48278;52.704;6.536;2023-01-29T05:09:33;3.70;99.90
58339;DHT22;48278;52.704;6.536;2023-01-29T05:12:01;3.70;99.90
58339;DHT22;48278;52.704;6.536;2023-01-29T05:14:29;3.70;99.90
58339;DHT22;48278;52.704;6.536;2023-01-29T05:17:01;3.70;99.90
58339;DHT22;48278;52.704;6.536;2023-01-29T05:19:28;3.70;99.90
58339;DHT22;48278;52.704;6.536;2023-01-29T05:21:53;3.70;99.90
58339;DHT22;48278;52.704;6.536;2023-01-29T05:24:24;3.70;99.90
58339;DHT22;48278;52.704;6.536;2023-01-29T05:26:51;3.70;99.90
58339;DHT22;48278;52.704;6.536;2023-01-29T05:29:36;3.70;99.90
58339;DHT22;48278;52.704;6.536;2023-01-29T05:32:03;3.70;99.90
58339;DHT22;48278;52.704;6.536;2023-01-29T05:34:29;3.80;99.90
58339;DHT22;48278;52.704;6.536;2023-01-29T05:36:54;3.70;99.90
58339;DHT22;48278;52.704;6.536;2023-01-29T05:39:20;3.80;99.90
58339;DHT22;48278;52.704;6.536;2023-01-29T05:41:47;3.70;99.90
58339;DHT22;48278;52.704;6.536;2023-01-29T05:44:12;3.80;99.90
58339;DHT22;48278;52.704;6.536;2023-01-29T05:46:38;3.70;99.90
58339;DHT22;48278;52.704;6.536;2023-01-29T05:49:04;3.70;99.90
58339;DHT22;48278;52.704;6.536;2023-01-29T05:51:30;3.80;99.90
58339;DHT22;48278;52.704;6.536;2023-01-29T05:53:56;3.70;99.90
58339;DHT22;48278;52.704;6.536;2023-01-29T05:56:22;3.70;99.90
58339;DHT22;48278;52.704;6.536;2023-01-29T05:58:48;3.70;99.90
58339;DHT22;48278;52.704;6.536;2023-01-29T06:01:17;3.70;99.90
58339;DHT22;48278;52.704;6.536;2023-01-29T06:03:43;3.80;99.90
58339;DHT22;48278;52.704;6.536;2023-01-29T06:06:09;3.70;99.90
58339;DHT22;48278;52.704;6.536;2023-01-29T06:08:35;3.70;99.90
58339;DHT22;48278;52.704;6.536;2023-01-29T06:11:01;3.70;99.90
58339;DHT22;48278;52.704;6.536;2023-01-29T06:13:27;3.70;99.90
58339;DHT22;48278;52.704;6.536;2023-01-29T06:15:53;3.60;99.90
58339;DHT22;48278;52.704;6.536;2023-01-29T06:18:18;3.70;99.90
58339;DHT22;48278;52.704;6.536;2023-01-29T06:20:44;3.70;99.90
58339;DHT22;48278;52.704;6.536;2023-01-29T06:23:10;3.60;99.90
58339;DHT22;48278;52.704;6.536;2023-01-29T06:25:36;3.60;99.90
58339;DHT22;48278;52.704;6.536;2023-01-29T06:28:01;3.60;99.90
58339;DHT22;48278;52.704;6.536;2023-01-29T06:30:27;3.60;99.90
58339;DHT22;48278;52.704;6.536;2023-01-29T06:32:59;3.60;99.90
58339;DHT22;48278;52.704;6.536;2023-01-29T06:35:28;3.60;99.90
58339;DHT22;48278;52.704;6.536;2023-01-29T06:37:55;3.60;99.90
58339;DHT22;48278;52.704;6.536;2023-01-29T06:40:20;3.60;99.90
58339;DHT22;48278;52.704;6.536;2023-01-29T06:42:46;3.60;99.90
58339;DHT22;48278;52.704;6.536;2023-01-29T06:45:12;3.50;99.90
58339;DHT22;48278;52.704;6.536;2023-01-29T06:47:37;3.50;99.90
58339;DHT22;48278;52.704;6.536;2023-01-29T06:50:04;3.50;99.90
58339;DHT22;48278;52.704;6.536;2023-01-29T06:52:29;3.50;99.90
58339;DHT22;48278;52.704;6.536;2023-01-29T06:54:55;3.60;99.90
58339;DHT22;48278;52.704;6.536;2023-01-29T06:57:21;3.60;99.90
58339;DHT22;48278;52.704;6.536;2023-01-29T06:59:47;3.60;99.90
58339;DHT22;48278;52.704;6.536;2023-01-29T07:02:13;3.50;99.90
58339;DHT22;48278;52.704;6.536;2023-01-29T07:04:39;3.60;99.90
58339;DHT22;48278;52.704;6.536;2023-01-29T07:07:06;3.50;99.90
58339;DHT22;48278;52.704;6.536;2023-01-29T07:09:39;3.50;99.90
58339;DHT22;48278;52.704;6.536;2023-01-29T07:12:05;3.50;99.90
58339;DHT22;48278;52.704;6.536;2023-01-29T07:14:31;3.60;99.90
58339;DHT22;48278;52.704;6.536;2023-01-29T07:16:57;3.50;99.90
58339;DHT22;48278;52.704;6.536;2023-01-29T07:19:22;3.60;99.90
58339;DHT22;48278;52.704;6.536;2023-01-29T07:21:48;3.60;99.90
58339;DHT22;48278;52.704;6.536;2023-01-29T07:24:14;3.60;99.90
58339;DHT22;48278;52.704;6.536;2023-01-29T07:26:41;3.50;99.90
58339;DHT22;48278;52.704;6.536;2023-01-29T07:29:06;3.60;99.90
58339;DHT22;48278;52.704;6.536;2023-01-29T07:31:32;3.50;99.90
58339;DHT22;48278;52.704;6.536;2023-01-29T07:33:58;3.50;99.90
58339;DHT22;48278;52.704;6.536;2023-01-29T07:36:24;3.60;99.90
58339;DHT22;48278;52.704;6.536;2023-01-29T07:38:50;3.70;99.90
58339;DHT22;48278;52.704;6.536;2023-01-29T07:41:16;3.60;99.90
58339;DHT22;48278;52.704;6.536;2023-01-29T07:43:41;3.60;99.90
58339;DHT22;48278;52.704;6.536;2023-01-29T07:46:07;3.60;99.90
58339;DHT22;48278;52.704;6.536;2023-01-29T07:48:33;3.70;99.90
58339;DHT22;48278;52.704;6.536;2023-01-29T07:50:59;3.70;99.90
58339;DHT22;48278;52.704;6.536;2023-01-29T07:53:26;3.60;99.90
58339;DHT22;48278;52.704;6.536;2023-01-29T07:55:52;3.60;99.90
58339;DHT22;48278;52.704;6.536;2023-01-29T07:58:18;3.60;99.90
58339;DHT22;48278;52.704;6.536;2023-01-29T08:00:44;3.70;99.90
58339;DHT22;48278;52.704;6.536;2023-01-29T08:03:15;3.60;99.90
58339;DHT22;48278;52.704;6.536;2023-01-29T08:05:44;3.70;99.90
58339;DHT22;48278;52.704;6.536;2023-01-29T08:08:10;3.70;99.90
58339;DHT22;48278;52.704;6.536;2023-01-29T08:10:37;3.70;99.90
58339;DHT22;48278;52.704;6.536;2023-01-29T08:13:03;3.70;99.90
58339;DHT22;48278;52.704;6.536;2023-01-29T08:15:30;3.70;99.90
58339;DHT22;48278;52.704;6.536;2023-01-29T08:17:55;3.70;99.90
58339;DHT22;48278;52.704;6.536;2023-01-29T08:20:21;3.70;99.90
58339;DHT22;48278;52.704;6.536;2023-01-29T08:22:48;3.80;99.90
58339;DHT22;48278;52.704;6.536;2023-01-29T08:25:14;3.90;99.90
58339;DHT22;48278;52.704;6.536;2023-01-29T08:27:41;3.80;99.90
58339;DHT22;48278;52.704;6.536;2023-01-29T08:30:08;3.80;99.90
58339;DHT22;48278;52.704;6.536;2023-01-29T08:32:34;3.80;99.90
58339;DHT22;48278;52.704;6.536;2023-01-29T08:35:00;3.80;99.90
58339;DHT22;48278;52.704;6.536;2023-01-29T08:37:26;3.80;99.90
58339;DHT22;48278;52.704;6.536;2023-01-29T08:39:52;3.80;99.90
58339;DHT22;48278;52.704;6.536;2023-01-29T08:42:17;3.80;99.90
58339;DHT22;48278;52.704;6.536;2023-01-29T08:44:43;3.80;99.90
58339;DHT22;48278;52.704;6.536;2023-01-29T08:47:09;3.80;99.90
58339;DHT22;48278;52.704;6.536;2023-01-29T08:49:34;3.80;99.90
58339;DHT22;48278;52.704;6.536;2023-01-29T08:52:00;3.90;99.90
58339;DHT22;48278;52.704;6.536;2023-01-29T08:54:26;3.80;99.90
58339;DHT22;48278;52.704;6.536;2023-01-29T08:56:51;3.80;99.90
58339;DHT22;48278;52.704;6.536;2023-01-29T08:59:17;3.90;99.90
58339;DHT22;48278;52.704;6.536;2023-01-29T09:01:43;3.80;99.90
58339;DHT22;48278;52.704;6.536;2023-01-29T09:04:09;3.90;99.90
58339;DHT22;48278;52.704;6.536;2023-01-29T09:06:34;3.90;99.90
58339;DHT22;48278;52.704;6.536;2023-01-29T09:09:00;3.90;99.90
58339;DHT22;48278;52.704;6.536;2023-01-29T09:11:26;3.80;99.90
58339;DHT22;48278;52.704;6.536;2023-01-29T09:13:52;3.90;99.90
58339;DHT22;48278;52.704;6.536;2023-01-29T09:16:17;3.90;99.90
58339;DHT22;48278;52.704;6.536;2023-01-29T09:18:43;3.90;99.90
58339;DHT22;48278;52.704;6.536;2023-01-29T09:21:09;3.90;99.90
58339;DHT22;48278;52.704;6.536;2023-01-29T09:23:35;3.90;99.90
58339;DHT22;48278;52.704;6.536;2023-01-29T09:26:01;3.90;99.90
58339;DHT22;48278;52.704;6.536;2023-01-29T09:28:27;4.00;99.90
58339;DHT22;48278;52.704;6.536;2023-01-29T09:30:53;4.10;99.90
58339;DHT22;48278;52.704;6.536;2023-01-29T09:33:19;4.20;99.90
58339;DHT22;48278;52.704;6.536;2023-01-29T09:35:46;4.20;99.90
58339;DHT22;48278;52.704;6.536;2023-01-29T09:38:12;4.30;99.90
58339;DHT22;48278;52.704;6.536;2023-01-29T09:40:53;4.30;99.90
58339;DHT22;48278;52.704;6.536;2023-01-29T09:46:11;4.40;99.90
58339;DHT22;48278;52.704;6.536;2023-01-29T09:48:40;4.60;99.90
58339;DHT22;48278;52.704;6.536;2023-01-29T09:51:31;4.70;99.90
58339;DHT22;48278;52.704;6.536;2023-01-29T09:56:36;4.80;99.90
58339;DHT22;48278;52.704;6.536;2023-01-29T09:59:01;4.70;99.90
58339;DHT22;48278;52.704;6.536;2023-01-29T10:05:09;4.80;99.90
58339;DHT22;48278;52.704;6.536;2023-01-29T10:12:58;4.70;99.90
58339;DHT22;48278;52.704;6.536;2023-01-29T10:15:41;4.80;99.90
58339;DHT22;48278;52.704;6.536;2023-01-29T10:23:35;4.80;99.90
58339;DHT22;48278;52.704;6.536;2023-01-29T10:26:03;4.80;99.90
58339;DHT22;48278;52.704;6.536;2023-01-29T10:28:42;4.90;99.90
58339;DHT22;48278;52.704;6.536;2023-01-29T10:31:29;4.90;99.90
58339;DHT22;48278;52.704;6.536;2023-01-29T10:34:13;4.90;99.90
58339;DHT22;48278;52.704;6.536;2023-01-29T10:36:46;4.90;99.90
58339;DHT22;48278;52.704;6.536;2023-01-29T10:39:23;4.90;99.90
58339;DHT22;48278;52.704;6.536;2023-01-29T11:03:25;5.20;99.90
58339;DHT22;48278;52.704;6.536;2023-01-29T11:08:42;5.20;99.90
58339;DHT22;48278;52.704;6.536;2023-01-29T11:11:12;5.20;99.90
58339;DHT22;48278;52.704;6.536;2023-01-29T11:13:52;5.20;99.90
58339;DHT22;48278;52.704;6.536;2023-01-29T11:16:19;5.20;99.90
58339;DHT22;48278;52.704;6.536;2023-01-29T11:18:50;5.20;99.90
58339;DHT22;48278;52.704;6.536;2023-01-29T11:21:16;5.20;99.90
58339;DHT22;48278;52.704;6.536;2023-01-29T11:23:42;5.30;99.90
58339;DHT22;48278;52.704;6.536;2023-01-29T11:26:11;5.30;99.90
58339;DHT22;48278;52.704;6.536;2023-01-29T11:28:41;5.30;99.90
58339;DHT22;48278;52.704;6.536;2023-01-29T11:31:26;5.40;99.90
58339;DHT22;48278;52.704;6.536;2023-01-29T11:34:11;5.40;99.90
58339;DHT22;48278;52.704;6.536;2023-01-29T11:36:38;5.40;99.90
58339;DHT22;48278;52.704;6.536;2023-01-29T11:39:09;5.40;99.90
58339;DHT22;48278;52.704;6.536;2023-01-29T11:41:47;5.30;99.90
58339;DHT22;48278;52.704;6.536;2023-01-29T11:46:52;5.40;99.90
58339;DHT22;48278;52.704;6.536;2023-01-29T11:49:29;5.40;99.90
58339;DHT22;48278;52.704;6.536;2023-01-29T11:51:57;5.40;99.90
58339;DHT22;48278;52.704;6.536;2023-01-29T11:54:28;5.30;99.90
58339;DHT22;48278;52.704;6.536;2023-01-29T11:56:56;5.50;99.90
58339;DHT22;48278;52.704;6.536;2023-01-29T12:01:48;5.50;99.90
58339;DHT22;48278;52.704;6.536;2023-01-29T12:04:18;5.50;99.90
58339;DHT22;48278;52.704;6.536;2023-01-29T12:06:46;5.50;99.90
58339;DHT22;48278;52.704;6.536;2023-01-29T12:09:17;5.50;99.90
58339;DHT22;48278;52.704;6.536;2023-01-29T12:11:44;5.40;99.90
58339;DHT22;48278;52.704;6.536;2023-01-29T12:14:29;5.40;99.90
58339;DHT22;48278;52.704;6.536;2023-01-29T12:17:15;5.30;99.90
58339;DHT22;48278;52.704;6.536;2023-01-29T12:19:58;5.30;99.90
58339;DHT22;48278;52.704;6.536;2023-01-29T12:25:40;5.30;99.90
58339;DHT22;48278;52.704;6.536;2023-01-29T12:28:32;5.20;99.90
58339;DHT22;48278;52.704;6.536;2023-01-29T12:34:19;5.30;99.90
58339;DHT22;48278;52.704;6.536;2023-01-29T12:39:48;5.30;99.90
58339;DHT22;48278;52.704;6.536;2023-01-29T12:42:20;5.30;99.90
58339;DHT22;48278;52.704;6.536;2023-01-29T12:45:02;5.30;99.90
58339;DHT22;48278;52.704;6.536;2023-01-29T12:47:47;5.30;99.90
58339;DHT22;48278;52.704;6.536;2023-01-29T12:50:19;5.30;99.90
58339;DHT22;48278;52.704;6.536;2023-01-29T12:52:50;5.40;99.90
58339;DHT22;48278;52.704;6.536;2023-01-29T12:57:59;5.30;99.90
58339;DHT22;48278;52.704;6.536;2023-01-29T13:00:28;5.20;99.90
58339;DHT22;48278;52.704;6.536;2023-01-29T13:03:06;5.20;99.90
58339;DHT22;48278;52.704;6.536;2023-01-29T13:05:40;5.20;99.90
58339;DHT22;48278;52.704;6.536;2023-01-29T13:08:42;5.10;99.90
58339;DHT22;48278;52.704;6.536;2023-01-29T13:11:19;5.10;99.90
58339;DHT22;48278;52.704;6.536;2023-01-29T13:13:53;5.10;99.90
58339;DHT22;48278;52.704;6.536;2023-01-29T13:16:24;5.00;99.90
58339;DHT22;48278;52.704;6.536;2023-01-29T13:19:01;4.90;99.90
58339;DHT22;48278;52.704;6.536;2023-01-29T13:21:38;4.90;99.90
58339;DHT22;48278;52.704;6.536;2023-01-29T13:24:16;4.80;99.90
58339;DHT22;48278;52.704;6.536;2023-01-29T13:26:44;4.90;99.90
58339;DHT22;48278;52.704;6.536;2023-01-29T13:29:37;4.70;99.90
58339;DHT22;48278;52.704;6.536;2023-01-29T13:32:04;4.70;99.90
58339;DHT22;48278;52.704;6.536;2023-01-29T13:34:59;4.60;99.90
58339;DHT22;48278;52.704;6.536;2023-01-29T13:37:33;4.60;99.90
58339;DHT22;48278;52.704;6.536;2023-01-29T13:40:02;4.60;99.90
58339;DHT22;48278;52.704;6.536;2023-01-29T13:42:39;4.60;99.90
58339;DHT22;48278;52.704;6.536;2023-01-29T13:45:07;4.50;99.90
58339;DHT22;48278;52.704;6.536;2023-01-29T13:47:35;4.50;99.90
58339;DHT22;48278;52.704;6.536;2023-01-29T13:50:05;4.50;99.90
58339;DHT22;48278;52.704;6.536;2023-01-29T13:52:42;4.50;99.90
58339;DHT22;48278;52.704;6.536;2023-01-29T14:02:46;4.60;99.90
58339;DHT22;48278;52.704;6.536;2023-01-29T14:07:56;4.70;99.90
58339;DHT22;48278;52.704;6.536;2023-01-29T14:10:25;4.70;99.90
58339;DHT22;48278;52.704;6.536;2023-01-29T14:18:31;4.80;99.90
58339;DHT22;48278;52.704;6.536;2023-01-29T14:23:57;4.70;99.90
58339;DHT22;48278;52.704;6.536;2023-01-29T14:29:16;4.70;99.90
58339;DHT22;48278;52.704;6.536;2023-01-29T14:31:57;4.70;99.90
58339;DHT22;48278;52.704;6.536;2023-01-29T14:36:51;4.60;99.90
58339;DHT22;48278;52.704;6.536;2023-01-29T14:39:48;4.50;99.90
58339;DHT22;48278;52.704;6.536;2023-01-29T14:45:30;4.60;99.90
58339;DHT22;48278;52.704;6.536;2023-01-29T14:55:40;4.40;99.90
58339;DHT22;48278;52.704;6.536;2023-01-29T14:58:33;4.30;99.90
58339;DHT22;48278;52.704;6.536;2023-01-29T15:04:10;4.20;99.90
58339;DHT22;48278;52.704;6.536;2023-01-29T15:06:47;4.10;99.90
58339;DHT22;48278;52.704;6.536;2023-01-29T15:09:51;4.20;99.90
58339;DHT22;48278;52.704;6.536;2023-01-29T15:12:32;4.20;99.90
58339;DHT22;48278;52.704;6.536;2023-01-29T15:20:34;4.30;99.90
58339;DHT22;48278;52.704;6.536;2023-01-29T15:23:01;4.30;99.90
58339;DHT22;48278;52.704;6.536;2023-01-29T15:25:35;4.20;99.90
58339;DHT22;48278;52.704;6.536;2023-01-29T15:28:03;4.30;99.90
58339;DHT22;48278;52.704;6.536;2023-01-29T15:30:34;4.30;99.90
58339;DHT22;48278;52.704;6.536;2023-01-29T15:33:00;4.30;99.90
58339;DHT22;48278;52.704;6.536;2023-01-29T15:35:28;4.30;99.90
58339;DHT22;48278;52.704;6.536;2023-01-29T15:38:18;4.40;99.90
58339;DHT22;48278;52.704;6.536;2023-01-29T15:43:30;4.40;99.90
58339;DHT22;48278;52.704;6.536;2023-01-29T15:46:01;4.30;99.90
58339;DHT22;48278;52.704;6.536;2023-01-29T15:48:34;4.30;99.90
58339;DHT22;48278;52.704;6.536;2023-01-29T15:51:01;4.30;99.90
58339;DHT22;48278;52.704;6.536;2023-01-29T15:53:35;4.30;99.90
58339;DHT22;48278;52.704;6.536;2023-01-29T15:56:10;4.30;99.90
58339;DHT22;48278;52.704;6.536;2023-01-29T15:58:37;4.40;99.90
58339;DHT22;48278;52.704;6.536;2023-01-29T16:01:04;4.40;99.90
58339;DHT22;48278;52.704;6.536;2023-01-29T16:03:31;4.40;99.90
58339;DHT22;48278;52.704;6.536;2023-01-29T16:05:59;4.40;99.90
58339;DHT22;48278;52.704;6.536;2023-01-29T16:08:25;4.40;99.90
58339;DHT22;48278;52.704;6.536;2023-01-29T16:11:02;4.40;99.90
58339;DHT22;48278;52.704;6.536;2023-01-29T16:13:32;4.40;99.90
58339;DHT22;48278;52.704;6.536;2023-01-29T16:15:58;4.40;99.90
58339;DHT22;48278;52.704;6.536;2023-01-29T16:18:34;4.40;99.90
58339;DHT22;48278;52.704;6.536;2023-01-29T16:21:10;4.40;99.90
58339;DHT22;48278;52.704;6.536;2023-01-29T16:23:45;4.50;99.90
58339;DHT22;48278;52.704;6.536;2023-01-29T16:26:23;4.50;99.90
58339;DHT22;48278;52.704;6.536;2023-01-29T16:28:49;4.40;99.90
58339;DHT22;48278;52.704;6.536;2023-01-29T16:31:24;4.40;99.90
58339;DHT22;48278;52.704;6.536;2023-01-29T16:33:51;4.40;99.90
58339;DHT22;48278;52.704;6.536;2023-01-29T16:36:23;4.40;99.90
58339;DHT22;48278;52.704;6.536;2023-01-29T16:39:01;4.40;99.90
58339;DHT22;48278;52.704;6.536;2023-01-29T16:41:35;4.40;99.90
58339;DHT22;48278;52.704;6.536;2023-01-29T16:46:45;4.30;99.90
58339;DHT22;48278;52.704;6.536;2023-01-29T16:51:54;4.30;99.90
58339;DHT22;48278;52.704;6.536;2023-01-29T16:54:25;4.30;99.90
58339;DHT22;48278;52.704;6.536;2023-01-29T16:56:54;4.30;99.90
58339;DHT22;48278;52.704;6.536;2023-01-29T16:59:31;4.20;99.90
58339;DHT22;48278;52.704;6.536;2023-01-29T17:01:58;4.20;99.90
58339;DHT22;48278;52.704;6.536;2023-01-29T17:04:24;4.30;99.90
58339;DHT22;48278;52.704;6.536;2023-01-29T17:06:55;4.30;99.90
58339;DHT22;48278;52.704;6.536;2023-01-29T17:09:31;4.30;99.90
58339;DHT22;48278;52.704;6.536;2023-01-29T17:12:06;4.30;99.90
58339;DHT22;48278;52.704;6.536;2023-01-29T17:14:33;4.40;99.90
58339;DHT22;48278;52.704;6.536;2023-01-29T17:17:02;4.40;99.90
58339;DHT22;48278;52.704;6.536;2023-01-29T17:19:28;4.30;99.90
58339;DHT22;48278;52.704;6.536;2023-01-29T17:21:56;4.30;99.90
58339;DHT22;48278;52.704;6.536;2023-01-29T17:24:22;4.30;99.90
58339;DHT22;48278;52.704;6.536;2023-01-29T17:26:48;4.30;99.90
58339;DHT22;48278;52.704;6.536;2023-01-29T17:29:18;4.30;99.90
58339;DHT22;48278;52.704;6.536;2023-01-29T17:31:45;4.20;99.90
58339;DHT22;48278;52.704;6.536;2023-01-29T17:34:12;4.30;99.90
58339;DHT22;48278;52.704;6.536;2023-01-29T17:36:40;4.30;99.90
58339;DHT22;48278;52.704;6.536;2023-01-29T17:39:20;4.30;99.90
58339;DHT22;48278;52.704;6.536;2023-01-29T17:41:53;4.30;99.90
58339;DHT22;48278;52.704;6.536;2023-01-29T17:44:19;4.30;99.90
58339;DHT22;48278;52.704;6.536;2023-01-29T17:46:46;4.30;99.90
58339;DHT22;48278;52.704;6.536;2023-01-29T17:49:28;4.30;99.90
58339;DHT22;48278;52.704;6.536;2023-01-29T17:51:55;4.40;99.90
58339;DHT22;48278;52.704;6.536;2023-01-29T17:54:22;4.30;99.90
58339;DHT22;48278;52.704;6.536;2023-01-29T17:56:48;4.30;99.90
58339;DHT22;48278;52.704;6.536;2023-01-29T17:59:17;4.20;99.90
58339;DHT22;48278;52.704;6.536;2023-01-29T18:01:43;4.30;99.90
58339;DHT22;48278;52.704;6.536;2023-01-29T18:04:09;4.30;99.90
58339;DHT22;48278;52.704;6.536;2023-01-29T18:06:36;4.30;99.90
58339;DHT22;48278;52.704;6.536;2023-01-29T18:09:03;4.30;99.90
58339;DHT22;48278;52.704;6.536;2023-01-29T18:11:29;4.20;99.90
58339;DHT22;48278;52.704;6.536;2023-01-29T18:13:55;4.30;99.90
58339;DHT22;48278;52.704;6.536;2023-01-29T18:16:21;4.30;99.90
58339;DHT22;48278;52.704;6.536;2023-01-29T18:18:48;4.20;99.90
58339;DHT22;48278;52.704;6.536;2023-01-29T18:21:14;4.30;99.90
58339;DHT22;48278;52.704;6.536;2023-01-29T18:23:40;4.30;99.90
58339;DHT22;48278;52.704;6.536;2023-01-29T18:26:11;4.20;99.90
58339;DHT22;48278;52.704;6.536;2023-01-29T18:28:37;4.20;99.90
58339;DHT22;48278;52.704;6.536;2023-01-29T18:31:04;4.20;99.90
58339;DHT22;48278;52.704;6.536;2023-01-29T18:33:30;4.20;99.90
58339;DHT22;48278;52.704;6.536;2023-01-29T18:35:56;4.20;99.90
58339;DHT22;48278;52.704;6.536;2023-01-29T18:38:22;4.20;99.90
58339;DHT22;48278;52.704;6.536;2023-01-29T18:40:48;4.10;99.90
58339;DHT22;48278;52.704;6.536;2023-01-29T18:43:15;4.20;99.90
58339;DHT22;48278;52.704;6.536;2023-01-29T18:45:41;4.20;99.90
58339;DHT22;48278;52.704;6.536;2023-01-29T18:48:07;4.10;99.90
58339;DHT22;48278;52.704;6.536;2023-01-29T18:50:34;4.20;99.90
58339;DHT22;48278;52.704;6.536;2023-01-29T18:53:00;4.10;99.90